Time;durP1;ratioP1;P1;durP2;ratioP2;P2;SDS_P1;SDS_P2;PMS_P1;PMS_P2;Temp;Humidity;BMP_temperature;BMP_pressure;BME280_temperature;BME280_humidity;BME280_pressure;Samples;Min_cycle;Max_cycle;Signal;HPM_P1;HPM_P2
2022/10/15 00:02:04;;;;;;;4.08;2.90;;;;;;;20.94;47.43;101354.89;1733364;81;21054;-79
2022/10/15 00:04:30;;;;;;;4.40;2.92;;;;;;;20.95;47.41;101357.09;1730146;83;21047;-79
2022/10/15 00:06:56;;;;;;;4.53;2.87;;;;;;;20.95;47.40;101357.92;1730326;83;21070;-79
2022/10/15 00:09:23;;;;;;;4.33;3.10;;;;;;;20.94;47.37;101352.69;1733960;82;21026;-79
2022/10/15 00:11:49;;;;;;;5.12;3.33;;;;;;;20.94;47.35;101353.51;1730389;83;20991;-79
2022/10/15 00:14:16;;;;;;;5.35;3.10;;;;;;;20.94;47.32;101354.89;1730475;82;21426;-79
2022/10/15 00:16:42;;;;;;;4.30;3.30;;;;;;;20.95;47.32;101351.56;1730313;83;21113;-79
2022/10/15 00:19:08;;;;;;;5.08;2.77;;;;;;;20.95;47.30;101355.72;1704533;83;21026;-79
2022/10/15 00:21:35;;;;;;;4.40;2.75;;;;;;;20.95;47.30;101354.33;1730237;82;20984;-79
2022/10/15 00:24:02;;;;;;;4.62;3.00;;;;;;;20.94;47.28;101354.07;1730450;83;21446;-79
2022/10/15 00:26:28;;;;;;;4.55;2.98;;;;;;;20.94;47.25;101345.20;1730338;83;21141;-79
2022/10/15 00:28:59;;;;;;;4.87;2.90;;;;;;;20.93;47.26;101343.56;1730435;83;20995;-79
2022/10/15 00:31:27;;;;;;;4.33;2.92;;;;;;;20.93;47.24;101339.97;1730209;83;21406;-79
2022/10/15 00:33:56;;;;;;;3.52;2.67;;;;;;;20.91;47.23;101343.06;1722864;82;21032;-80
2022/10/15 00:36:25;;;;;;;4.22;2.80;;;;;;;20.92;47.21;101340.53;1719149;83;21057;-79
2022/10/15 00:38:51;;;;;;;5.53;2.90;;;;;;;20.93;47.19;101339.97;1719125;83;21040;-79
2022/10/15 00:41:23;;;;;;;3.95;2.90;;;;;;;20.92;47.17;101341.91;1719150;83;21266;-79
2022/10/15 00:43:52;;;;;;;4.05;2.90;;;;;;;20.92;47.16;101339.15;1720998;82;21056;-79
2022/10/15 00:46:38;;;;;;;4.37;3.20;;;;;;;20.92;47.13;101335.00;1719062;83;21511;-79
2022/10/15 00:49:34;;;;;;;3.92;2.98;;;;;;;20.92;47.11;101330.85;1719396;82;21500;-79
2022/10/15 00:52:09;;;;;;;5.00;3.55;;;;;;;20.91;47.11;101325.65;1718980;82;21029;-79
2022/10/15 00:54:45;;;;;;;4.90;3.30;;;;;;;20.91;47.05;101334.77;1718975;82;21119;-79
2022/10/15 00:57:12;;;;;;;3.72;3.00;;;;;;;20.90;47.05;101335.89;1719177;82;21040;-79
2022/10/15 00:59:42;;;;;;;5.15;3.65;;;;;;;20.90;47.05;101328.97;1697256;83;21081;-80
2022/10/15 01:02:08;;;;;;;4.47;3.30;;;;;;;20.89;47.04;101324.56;1721232;81;21060;-80
2022/10/15 01:04:34;;;;;;;5.80;3.33;;;;;;;20.90;47.01;101325.39;1727001;81;21156;-79
2022/10/15 01:07:01;;;;;;;4.10;3.12;;;;;;;20.89;47.00;101323.73;1727014;81;21036;-79
2022/10/15 01:09:27;;;;;;;4.12;3.20;;;;;;;20.89;46.99;101320.41;1698578;83;21021;-79
2022/10/15 01:11:54;;;;;;;5.33;3.45;;;;;;;20.90;46.98;101326.77;1696358;83;21572;-79
2022/10/15 01:14:40;;;;;;;5.83;3.87;;;;;;;20.89;46.97;101319.59;1722444;82;21103;-79
2022/10/15 01:17:26;;;;;;;4.95;3.37;;;;;;;20.89;46.95;101316.27;1722183;83;21118;-79
2022/10/15 01:20:50;;;;;;;5.95;3.80;;;;;;;20.89;46.95;101323.17;1722389;83;21432;-80
2022/10/15 01:24:14;;;;;;;5.58;3.17;;;;;;;20.89;46.92;101320.97;1722271;82;21068;-80
2022/10/15 01:27:15;;;;;;;4.35;3.40;;;;;;;20.87;46.90;101322.68;1722455;83;21052;-80
2022/10/15 01:30:13;;;;;;;4.58;3.42;;;;;;;20.85;46.85;101326.30;1722096;83;21495;-80
2022/10/15 01:32:48;;;;;;;4.75;3.62;;;;;;;20.85;46.85;101315.80;1722386;82;21969;-80
2022/10/15 01:35:34;;;;;;;4.53;3.60;;;;;;;20.83;46.83;101320.27;1722230;82;21095;-80
2022/10/15 01:38:26;;;;;;;4.50;3.55;;;;;;;20.83;46.83;101317.51;1722622;83;21011;-80
2022/10/15 01:40:58;;;;;;;4.17;3.70;;;;;;;20.83;46.83;101315.30;1722442;83;22214;-80
2022/10/15 01:43:29;;;;;;;5.03;3.70;;;;;;;20.83;46.80;101318.89;1722716;83;20993;-80
2022/10/15 01:45:58;;;;;;;5.35;3.60;;;;;;;20.82;46.80;101314.48;1721638;83;21239;-80
2022/10/15 01:48:26;;;;;;;5.87;3.42;;;;;;;20.82;46.79;101318.63;1723334;82;21443;-80
2022/10/15 01:50:53;;;;;;;5.05;4.00;;;;;;;20.82;46.77;101316.42;1724155;83;21099;-80
2022/10/15 01:53:25;;;;;;;4.67;3.80;;;;;;;20.83;46.74;101323.59;1723790;82;20968;-80
2022/10/15 01:56:01;;;;;;;5.00;4.05;;;;;;;20.82;46.73;101320.02;1724309;83;21099;-80
2022/10/15 01:58:27;;;;;;;5.08;3.80;;;;;;;20.83;46.73;101322.22;1723782;83;21108;-80
2022/10/15 02:00:54;;;;;;;5.03;3.95;;;;;;;20.83;46.69;101323.04;1692246;83;21459;-80
2022/10/15 02:03:20;;;;;;;4.28;3.83;;;;;;;20.83;46.66;101322.22;1720103;81;21486;-80
2022/10/15 02:05:51;;;;;;;4.25;3.58;;;;;;;20.83;46.66;101323.59;1744251;80;21040;-80
2022/10/15 02:08:29;;;;;;;4.65;3.47;;;;;;;20.84;46.64;101319.69;1744554;82;21051;-80
2022/10/15 02:11:01;;;;;;;4.62;3.58;;;;;;;20.83;46.64;101325.80;1744903;82;21117;-80
2022/10/15 02:14:04;;;;;;;4.97;3.62;;;;;;;20.83;46.60;101329.95;1745093;81;21068;-80
2022/10/15 02:16:51;;;;;;;3.90;3.50;;;;;;;20.83;46.58;101326.36;1744858;82;21095;-80
2022/10/15 02:19:24;;;;;;;5.33;3.80;;;;;;;20.83;46.55;101326.36;1745023;81;21025;-80
2022/10/15 02:22:13;;;;;;;4.25;3.60;;;;;;;20.82;46.52;101324.16;1719161;83;21157;-80
2022/10/15 02:24:50;;;;;;;5.30;3.80;;;;;;;20.82;46.52;101318.63;1754965;81;21092;-80
2022/10/15 02:27:16;;;;;;;5.12;4.00;;;;;;;20.81;46.48;101323.89;1753717;81;21072;-80
2022/10/15 02:29:42;;;;;;;4.90;3.77;;;;;;;20.81;46.49;101321.69;1724104;81;21508;-80
2022/10/15 02:32:09;;;;;;;4.83;3.50;;;;;;;20.81;46.48;101322.52;1753926;81;21054;-80
2022/10/15 02:34:35;;;;;;;4.62;3.75;;;;;;;20.81;46.46;101322.52;1699823;81;21033;-80
2022/10/15 02:37:03;;;;;;;6.08;3.87;;;;;;;20.81;46.45;101322.52;1753926;81;21467;-80
2022/10/15 02:39:29;;;;;;;7.08;4.28;;;;;;;20.80;46.43;101323.63;1753609;81;21081;-80
2022/10/15 02:41:56;;;;;;;4.78;3.92;;;;;;;20.81;46.41;101323.07;1753544;81;21068;-80
2022/10/15 02:44:22;;;;;;;4.28;3.60;;;;;;;20.81;46.40;101323.07;1748658;81;21535;-80
2022/10/15 02:46:49;;;;;;;4.83;3.87;;;;;;;20.81;46.39;101329.98;1754004;81;21005;-80
2022/10/15 02:49:15;;;;;;;6.33;3.80;;;;;;;20.81;46.36;101323.89;1753525;81;21103;-80
2022/10/15 02:51:41;;;;;;;4.83;3.75;;;;;;;20.82;46.33;101326.09;1753693;81;21056;-80
2022/10/15 02:54:08;;;;;;;5.55;3.80;;;;;;;20.81;46.32;101323.89;1723928;81;21388;-80
2022/10/15 02:56:34;;;;;;;4.50;3.83;;;;;;;20.82;46.29;101328.31;1753578;81;20998;-80
2022/10/15 02:59:00;;;;;;;5.05;4.00;;;;;;;20.81;46.27;101329.42;1754018;81;21104;-80
2022/10/15 03:01:27;;;;;;;5.90;4.00;;;;;;;20.82;46.25;101327.48;1753842;81;21336;-80
2022/10/15 03:03:53;;;;;;;4.03;3.62;;;;;;;20.81;46.21;101325.28;1753622;81;21080;-80
2022/10/15 03:06:26;;;;;;;6.33;4.05;;;;;;;20.82;46.21;101317.25;1753782;80;21715;-80
2022/10/15 03:08:52;;;;;;;4.17;3.42;;;;;;;20.81;46.19;101326.66;1753839;81;21107;-80
2022/10/15 03:11:18;;;;;;;4.33;3.92;;;;;;;20.81;46.17;101326.66;1753556;81;21075;-80
2022/10/15 03:13:51;;;;;;;4.75;3.70;;;;;;;20.81;46.15;101324.45;1753973;81;21545;-80
2022/10/15 03:16:17;;;;;;;4.60;4.10;;;;;;;20.81;46.13;101321.13;1753832;81;20949;-80
2022/10/15 03:18:43;;;;;;;4.10;3.70;;;;;;;20.81;46.12;101322.52;1753500;80;21530;-80
2022/10/15 03:21:10;;;;;;;5.08;4.12;;;;;;;20.81;46.11;101325.84;1753823;81;21072;-80
2022/10/15 03:23:36;;;;;;;4.50;3.70;;;;;;;20.81;46.06;101324.45;1724145;81;21016;-80
2022/10/15 03:26:02;;;;;;;3.98;3.45;;;;;;;20.81;46.06;101321.69;1753602;81;21474;-80
2022/10/15 03:28:29;;;;;;;5.15;4.22;;;;;;;20.80;46.06;101324.19;1753817;81;21064;-80
2022/10/15 03:30:55;;;;;;;5.50;3.67;;;;;;;20.80;46.02;101326.40;1753765;81;21052;-80
2022/10/15 03:33:21;;;;;;;4.40;3.98;;;;;;;20.80;46.00;101326.95;1722312;81;21068;-80
2022/10/15 03:35:47;;;;;;;4.62;4.00;;;;;;;20.79;46.00;101324.75;1753527;81;21602;-81
2022/10/15 03:38:14;;;;;;;5.90;4.00;;;;;;;20.79;45.98;101324.75;1753784;81;21442;-80
2022/10/15 03:40:40;;;;;;;6.83;4.20;;;;;;;20.79;45.96;101327.52;1753563;80;21029;-80
2022/10/15 03:43:06;;;;;;;5.08;3.80;;;;;;;20.79;45.94;101323.37;1753698;80;21005;-80
2022/10/15 03:45:33;;;;;;;4.10;3.70;;;;;;;20.79;45.93;101327.52;1753836;81;21009;-80
2022/10/15 03:47:59;;;;;;;4.62;3.98;;;;;;;20.79;45.92;101335.81;1753618;81;21492;-80
2022/10/15 03:50:25;;;;;;;4.50;4.10;;;;;;;20.79;45.93;101339.96;1753686;81;21491;-79
2022/10/15 03:52:57;;;;;;;4.87;4.37;;;;;;;20.79;45.88;101331.66;1724552;81;20929;-80
2022/10/15 03:55:24;;;;;;;5.25;4.25;;;;;;;20.79;45.85;101336.40;1725287;81;21596;-80
2022/10/15 03:57:50;;;;;;;4.65;4.20;;;;;;;20.78;45.80;101328.66;1753759;81;21056;-80
2022/10/15 04:00:16;;;;;;;7.67;4.30;;;;;;;20.79;45.80;101333.05;1724571;81;21076;-80
2022/10/15 04:02:43;;;;;;;5.58;4.10;;;;;;;20.78;45.79;101331.98;1753412;81;21163;-80
2022/10/15 04:05:09;;;;;;;5.05;4.55;;;;;;;20.78;45.75;101329.22;1753598;81;21107;-80
2022/10/15 04:07:35;;;;;;;5.47;4.35;;;;;;;20.78;45.72;101336.96;1722543;81;21088;-80
2022/10/15 04:10:02;;;;;;;5.55;4.10;;;;;;;20.77;45.72;101335.31;1718999;80;21135;-80
2022/10/15 04:12:34;;;;;;;5.47;3.95;;;;;;;20.78;45.68;101329.22;1753473;81;21354;-80
2022/10/15 04:15:00;;;;;;;5.15;4.17;;;;;;;20.77;45.66;101334.48;1753424;81;21124;-80
2022/10/15 04:17:27;;;;;;;4.30;3.70;;;;;;;20.77;45.63;101332.55;1753311;81;21083;-80
2022/10/15 04:19:53;;;;;;;4.90;4.30;;;;;;;20.78;45.62;101333.38;1753701;81;21554;-80
2022/10/15 04:22:19;;;;;;;5.65;4.55;;;;;;;20.76;45.61;101337.81;1753838;81;20977;-80
2022/10/15 04:24:45;;;;;;;5.75;4.37;;;;;;;20.77;45.59;101327.58;1753367;81;20996;-80
2022/10/15 04:27:12;;;;;;;5.33;4.70;;;;;;;20.76;45.58;101337.81;1719653;81;21546;-80
2022/10/15 04:29:38;;;;;;;4.83;4.20;;;;;;;20.77;45.54;101340.02;1753738;80;21091;-80
2022/10/15 04:32:05;;;;;;;5.20;4.42;;;;;;;20.76;45.53;101338.37;1753456;81;21040;-80
2022/10/15 04:34:31;;;;;;;4.65;4.15;;;;;;;20.76;45.54;101341.97;1753724;81;21191;-80
2022/10/15 04:36:57;;;;;;;4.50;4.10;;;;;;;20.75;45.54;101341.70;1753913;81;21134;-80
2022/10/15 04:39:23;;;;;;;4.28;3.87;;;;;;;20.76;45.50;101347.49;1753449;81;21740;-80
2022/10/15 04:41:50;;;;;;;5.37;4.40;;;;;;;20.76;45.48;101350.26;1753715;81;21024;-80
2022/10/15 04:44:16;;;;;;;5.80;4.47;;;;;;;20.76;45.47;101343.91;1753690;81;21076;-80
2022/10/15 04:46:43;;;;;;;4.60;3.95;;;;;;;20.76;45.46;101346.67;1752772;81;21111;-80
2022/10/15 04:49:09;;;;;;;5.40;3.58;;;;;;;20.76;45.44;101341.14;1752479;81;21111;-80
2022/10/15 04:51:36;;;;;;;4.70;4.20;;;;;;;20.75;45.41;101347.23;1711539;82;21712;-80
2022/10/15 04:54:03;;;;;;;6.05;3.95;;;;;;;20.76;45.39;101345.28;1748695;81;21099;-80
2022/10/15 04:56:29;;;;;;;5.05;4.08;;;;;;;20.75;45.38;101347.23;1719526;82;21083;-80
2022/10/15 04:58:55;;;;;;;6.62;4.47;;;;;;;20.75;45.36;101345.84;1749022;81;21426;-80
2022/10/15 05:01:21;;;;;;;5.37;4.45;;;;;;;20.75;45.35;101347.81;1748710;80;21566;-80
2022/10/15 05:03:48;;;;;;;5.08;4.20;;;;;;;20.74;45.35;101348.38;1749125;81;21083;-80
2022/10/15 05:06:18;;;;;;;4.72;4.22;;;;;;;20.74;45.35;101347.55;1748673;81;21060;-80
2022/10/15 05:08:44;;;;;;;4.92;4.42;;;;;;;20.75;45.32;101349.20;1748715;80;21059;-80
2022/10/15 05:11:14;;;;;;;5.45;4.17;;;;;;;20.74;45.30;101347.55;1749168;80;21072;-80
2022/10/15 05:13:41;;;;;;;5.22;3.90;;;;;;;20.73;45.29;101353.64;1750063;82;21557;-80
2022/10/15 05:16:17;;;;;;;4.42;4.03;;;;;;;20.73;45.29;101355.59;1749594;82;21239;-80
2022/10/15 05:18:46;;;;;;;4.75;4.00;;;;;;;20.73;45.29;101355.02;1749944;82;21514;-80
2022/10/15 05:21:12;;;;;;;4.80;4.20;;;;;;;20.72;45.27;101361.67;1749612;82;21123;-80
2022/10/15 05:23:39;;;;;;;6.15;3.85;;;;;;;20.73;45.26;101365.27;1749730;80;21063;-80
2022/10/15 05:26:09;;;;;;;4.95;4.17;;;;;;;20.72;45.23;101347.84;1749918;80;21010;-80
2022/10/15 05:28:35;;;;;;;4.45;3.83;;;;;;;20.72;45.24;101365.82;1753558;81;21912;-80
2022/10/15 05:31:14;;;;;;;5.08;4.58;;;;;;;20.72;45.22;101371.35;1753785;80;21048;-80
2022/10/15 05:33:40;;;;;;;5.22;4.10;;;;;;;20.72;45.19;101374.67;1753559;81;21095;-80
2022/10/15 05:36:13;;;;;;;5.00;4.30;;;;;;;20.72;45.20;101371.91;1753544;81;21028;-80
2022/10/15 05:38:41;;;;;;;5.35;3.77;;;;;;;20.72;45.17;101378.83;1752580;81;21119;-80
2022/10/15 05:41:07;;;;;;;5.03;4.28;;;;;;;20.72;45.15;101377.44;1719136;81;21141;-80
2022/10/15 05:43:33;;;;;;;5.72;4.10;;;;;;;20.71;45.13;101373.85;1753728;81;21056;-80
2022/10/15 05:46:00;;;;;;;4.50;4.05;;;;;;;20.72;45.13;101380.20;1753793;81;21583;-80
2022/10/15 05:48:26;;;;;;;4.78;4.03;;;;;;;20.71;45.11;101382.73;1723845;81;21539;-80
2022/10/15 05:50:52;;;;;;;4.90;3.65;;;;;;;20.72;45.09;101381.59;1753847;80;21066;-80
2022/10/15 05:53:18;;;;;;;5.30;4.08;;;;;;;20.71;45.08;101382.14;1724097;81;21068;-80
2022/10/15 05:55:45;;;;;;;6.40;4.20;;;;;;;20.72;45.07;101384.35;1753447;81;21032;-80
2022/10/15 05:58:17;;;;;;;6.58;4.22;;;;;;;20.71;45.07;101379.97;1753453;81;21791;-80
2022/10/15 06:00:44;;;;;;;5.35;3.98;;;;;;;20.71;45.03;101383.53;1721070;81;21548;-80
2022/10/15 06:03:19;;;;;;;5.15;4.05;;;;;;;20.72;45.05;101387.94;1753381;81;21563;-80
2022/10/15 06:05:45;;;;;;;4.97;4.33;;;;;;;20.72;45.01;101385.73;1695799;81;21539;-80
2022/10/15 06:08:11;;;;;;;5.42;3.90;;;;;;;20.71;45.02;101388.27;1751086;80;21472;-80
2022/10/15 06:10:38;;;;;;;5.08;4.10;;;;;;;20.71;44.99;101389.06;1751225;82;21001;-80
2022/10/15 06:13:05;;;;;;;4.78;4.15;;;;;;;20.70;44.99;101387.44;1751495;82;21052;-80
2022/10/15 06:15:32;;;;;;;5.67;4.35;;;;;;;20.69;44.97;101392.70;1751371;80;21011;-80
2022/10/15 06:17:59;;;;;;;6.22;4.65;;;;;;;20.70;44.98;101389.38;1750945;82;21142;-80
2022/10/15 06:20:31;;;;;;;5.03;4.03;;;;;;;20.71;44.97;101390.44;1750844;82;21494;-80
2022/10/15 06:23:07;;;;;;;5.30;4.12;;;;;;;20.70;44.94;101394.36;1751134;80;21071;-80
2022/10/15 06:25:33;;;;;;;4.30;3.90;;;;;;;20.70;44.94;101399.06;1750944;81;21052;-80
2022/10/15 06:28:04;;;;;;;4.97;4.08;;;;;;;20.71;44.95;101397.95;1751127;80;21071;-79
2022/10/15 06:30:30;;;;;;;5.55;4.00;;;;;;;20.70;44.94;101405.41;1751276;80;21130;-80
2022/10/15 06:32:57;;;;;;;4.55;3.83;;;;;;;20.70;44.95;101405.41;1720891;82;21056;-80
2022/10/15 06:35:24;;;;;;;4.90;3.87;;;;;;;20.70;44.92;101401.83;1751074;80;21697;-80
2022/10/15 06:37:50;;;;;;;5.12;3.62;;;;;;;20.70;44.92;101410.95;1751416;82;21052;-80
2022/10/15 06:40:16;;;;;;;5.60;4.35;;;;;;;20.70;44.90;101410.95;1724275;82;21040;-80
2022/10/15 06:42:42;;;;;;;6.65;4.55;;;;;;;20.70;44.89;101410.13;1751578;82;21136;-80
2022/10/15 06:45:10;;;;;;;4.90;3.65;;;;;;;20.71;44.92;101414.53;1751424;80;21487;-80
2022/10/15 06:47:36;;;;;;;4.67;4.00;;;;;;;20.69;44.95;101412.06;1751282;80;21071;-80
2022/10/15 06:50:05;;;;;;;5.40;4.25;;;;;;;20.71;44.92;101421.45;1726195;82;21068;-80
2022/10/15 06:52:31;;;;;;;4.42;3.60;;;;;;;20.70;44.89;101422.56;1751529;82;21060;-80
2022/10/15 06:54:58;;;;;;;5.53;3.92;;;;;;;20.70;44.92;101415.09;1751324;82;21112;-80
2022/10/15 06:57:24;;;;;;;5.53;4.10;;;;;;;20.70;44.88;101420.63;1751270;82;21478;-80
2022/10/15 06:59:51;;;;;;;5.55;3.85;;;;;;;20.71;44.88;101428.36;1751492;80;21190;-80
2022/10/15 07:02:18;;;;;;;5.58;3.65;;;;;;;20.71;44.86;101421.45;1751126;82;21020;-80
2022/10/15 07:04:45;;;;;;;5.15;3.90;;;;;;;20.70;44.86;101419.80;1751424;82;20998;-80
2022/10/15 07:07:12;;;;;;;4.90;3.87;;;;;;;20.70;44.83;101419.23;1751363;80;21131;-80
2022/10/15 07:09:38;;;;;;;4.47;3.62;;;;;;;20.71;44.83;101417.30;1750998;80;21068;-80
2022/10/15 07:12:04;;;;;;;6.17;4.28;;;;;;;20.70;44.86;101419.23;1751393;82;21048;-80
2022/10/15 07:14:31;;;;;;;5.83;3.70;;;;;;;20.71;44.82;101415.92;1751924;81;20973;-79
2022/10/15 07:16:58;;;;;;;5.30;3.60;;;;;;;20.70;44.81;101417.86;1752925;80;21071;-80
2022/10/15 07:19:24;;;;;;;7.00;3.75;;;;;;;20.70;44.82;101417.86;1700332;83;21376;-80
2022/10/15 07:21:50;;;;;;;4.40;3.35;;;;;;;20.71;44.81;101423.63;1752984;81;21147;-80
2022/10/15 07:24:17;;;;;;;4.10;3.62;;;;;;;20.71;44.80;101426.39;1752859;81;21008;-80
2022/10/15 07:26:43;;;;;;;5.17;3.95;;;;;;;20.71;44.81;101423.63;1752942;80;21020;-80
2022/10/15 07:29:09;;;;;;;5.08;3.60;;;;;;;20.72;44.81;101418.36;1753078;81;21067;-80
2022/10/15 07:31:36;;;;;;;4.15;3.55;;;;;;;20.72;44.80;101425.27;1726873;81;21668;-80
2022/10/15 07:34:02;;;;;;;3.90;3.20;;;;;;;20.72;44.78;101418.92;1729408;82;21148;-80
2022/10/15 07:36:28;;;;;;;5.40;3.52;;;;;;;20.73;44.77;101421.95;1752804;81;21052;-80
2022/10/15 07:38:54;;;;;;;5.22;3.42;;;;;;;20.72;44.79;101423.89;1729305;83;21621;-80
2022/10/15 07:41:21;;;;;;;5.40;3.80;;;;;;;20.72;44.78;101422.50;1724737;83;21076;-80
2022/10/15 07:43:47;;;;;;;5.12;3.70;;;;;;;20.72;44.78;101416.98;1729703;83;21299;-80
2022/10/15 07:46:19;;;;;;;4.10;3.60;;;;;;;20.72;44.75;101425.27;1752615;80;21076;-80
2022/10/15 07:48:46;;;;;;;5.15;3.65;;;;;;;20.72;44.76;101423.06;1753014;81;21040;-80
2022/10/15 07:51:12;;;;;;;4.35;3.62;;;;;;;20.73;44.78;101421.95;1752151;81;21119;-80
2022/10/15 07:53:38;;;;;;;4.90;3.55;;;;;;;20.73;44.75;101424.72;1751044;80;21490;-80
2022/10/15 07:56:07;;;;;;;4.95;3.80;;;;;;;20.72;44.77;101425.27;1751351;81;21849;-80
2022/10/15 07:58:34;;;;;;;4.22;3.60;;;;;;;20.73;44.74;101423.33;1751209;82;21483;-80
2022/10/15 08:01:01;;;;;;;5.92;3.80;;;;;;;20.74;44.73;101422.22;1751417;82;21068;-80
2022/10/15 08:03:27;;;;;;;5.22;3.80;;;;;;;20.73;44.71;101425.53;1751369;82;21626;-80
2022/10/15 08:05:54;;;;;;;4.20;3.50;;;;;;;20.73;44.71;101423.33;1724843;82;21084;-80
2022/10/15 08:08:21;;;;;;;5.05;3.47;;;;;;;20.73;44.73;101426.09;1735456;81;21098;-80
2022/10/15 08:10:48;;;;;;;4.28;3.40;;;;;;;20.74;44.73;101433.28;1746622;81;21061;-80
2022/10/15 08:13:14;;;;;;;5.05;3.20;;;;;;;20.73;44.73;101426.92;1717171;83;21503;-80
2022/10/15 08:15:40;;;;;;;4.05;3.47;;;;;;;20.74;44.73;101423.59;1717016;82;21532;-80
2022/10/15 08:18:08;;;;;;;4.35;3.60;;;;;;;20.73;44.73;101429.69;1717058;83;21057;-80
2022/10/15 08:20:38;;;;;;;6.67;3.40;;;;;;;20.73;44.73;101428.86;1702546;83;39689;-80
2022/10/15 08:23:05;;;;;;;4.40;3.47;;;;;;;20.74;44.72;101429.13;1716538;83;21107;-80
2022/10/15 08:25:31;;;;;;;4.40;3.08;;;;;;;20.73;44.73;101432.45;1690241;83;21524;-80
2022/10/15 08:27:58;;;;;;;4.35;3.45;;;;;;;20.73;44.74;101429.69;1726100;82;21010;-82
2022/10/15 08:30:24;;;;;;;4.97;3.90;;;;;;;20.74;44.73;101433.28;1748503;81;21365;-82
2022/10/15 08:32:51;;;;;;;3.85;3.33;;;;;;;20.73;44.74;101431.06;1748720;82;21047;-83
2022/10/15 08:35:17;;;;;;;4.42;3.35;;;;;;;20.74;44.73;101433.28;1729026;83;21119;-84
2022/10/15 08:37:43;;;;;;;5.92;3.85;;;;;;;20.74;44.74;101426.36;1748255;80;21006;-82
2022/10/15 08:40:12;;;;;;;3.52;2.92;;;;;;;20.75;44.70;101432.16;1720832;82;21131;-83
2022/10/15 08:42:41;;;;;;;4.45;3.33;;;;;;;20.75;44.66;101426.03;1697756;82;21524;-83
2022/10/15 08:45:17;;;;;;;5.05;3.37;;;;;;;20.74;44.69;101424.42;1748188;82;21120;-83
2022/10/15 08:47:58;;;;;;;4.97;3.45;;;;;;;20.74;44.69;101429.95;1748307;81;21056;-82
2022/10/15 08:50:48;;;;;;;3.90;3.17;;;;;;;20.74;44.68;101431.89;1748109;80;21005;-82
2022/10/15 08:53:18;;;;;;;4.67;3.57;;;;;;;20.74;44.66;101431.89;1748721;80;21495;-82
2022/10/15 08:55:48;;;;;;;4.65;3.40;;;;;;;20.74;44.66;101431.89;1748174;80;21069;-83
2022/10/15 08:58:34;;;;;;;4.45;3.75;;;;;;;20.74;44.65;101434.09;1748229;80;21004;-83
2022/10/15 09:01:08;;;;;;;4.60;3.33;;;;;;;20.74;44.66;101438.25;1742504;82;21052;-84
2022/10/15 09:03:58;;;;;;;4.62;3.30;;;;;;;20.73;44.66;101436.59;1743098;79;21495;-83
2022/10/15 09:06:34;;;;;;;4.10;3.08;;;;;;;20.73;44.65;101442.12;1746816;81;21539;-83
2022/10/15 09:09:26;;;;;;;4.67;3.25;;;;;;;20.73;44.64;101433.83;1717010;82;21069;-82
2022/10/15 09:12:21;;;;;;;3.67;3.20;;;;;;;20.73;44.63;101435.77;1742269;81;21186;-82
2022/10/15 09:14:47;;;;;;;5.12;3.58;;;;;;;20.72;44.65;101442.42;1742687;82;20947;-83
2022/10/15 09:17:24;;;;;;;4.15;3.22;;;;;;;20.71;44.63;101433.89;1733904;82;21088;-82
2022/10/15 09:19:54;;;;;;;4.00;3.50;;;;;;;20.71;44.63;101434.69;1742622;82;21461;-82
2022/10/15 09:22:29;;;;;;;3.12;2.83;;;;;;;20.71;44.63;101431.92;1742622;82;21128;-82
2022/10/15 09:24:56;;;;;;;3.42;2.87;;;;;;;20.72;44.62;101432.74;1742656;82;21460;-82
2022/10/15 09:27:35;;;;;;;3.83;2.90;;;;;;;20.70;44.63;101420.63;1742268;82;21629;-82
2022/10/15 09:30:19;;;;;;;3.98;3.30;;;;;;;20.72;44.65;101428.59;1739789;81;21105;-82
2022/10/15 09:32:56;;;;;;;6.90;3.40;;;;;;;20.70;44.63;101428.09;1742094;81;21069;-83
2022/10/15 09:35:27;;;;;;;4.33;3.42;;;;;;;20.71;44.62;101424.22;1741863;81;21022;-82
2022/10/15 09:38:12;;;;;;;4.72;3.05;;;;;;;20.71;44.62;101423.63;1742182;82;21587;-82
2022/10/15 09:40:57;;;;;;;4.55;3.20;;;;;;;20.72;44.65;101418.36;1739940;81;21058;-82
2022/10/15 09:43:29;;;;;;;3.72;2.65;;;;;;;20.71;44.67;101422.23;1744167;80;21590;-82
2022/10/15 09:45:55;;;;;;;3.52;2.83;;;;;;;20.72;44.66;101423.06;1753309;81;21032;-82
2022/10/15 09:48:22;;;;;;;3.62;2.72;;;;;;;20.71;44.68;101420.86;1753371;81;21056;-82
2022/10/15 09:51:08;;;;;;;4.00;3.22;;;;;;;20.71;44.68;101416.71;1753358;81;21182;-83
2022/10/15 09:54:00;;;;;;;4.75;3.30;;;;;;;20.72;44.67;101421.13;1752930;80;21056;-83
2022/10/15 09:56:49;;;;;;;4.05;3.17;;;;;;;20.72;44.68;101419.74;1726949;81;20985;-82
2022/10/15 09:59:17;;;;;;;4.47;3.47;;;;;;;20.73;44.66;101408.95;1725940;81;21051;-82
2022/10/15 10:02:01;;;;;;;4.17;3.00;;;;;;;20.71;44.65;101409.80;1753267;81;21118;-82
2022/10/15 10:04:29;;;;;;;3.72;3.02;;;;;;;20.71;44.66;101408.41;1753612;81;21403;-82
2022/10/15 10:07:00;;;;;;;3.42;2.87;;;;;;;20.71;44.66;101407.03;1753319;81;20890;-82
2022/10/15 10:09:35;;;;;;;;;;;;;;;20.71;44.67;101402.88;1723688;81;21467;-82
2022/10/15 10:12:05;;;;;;;3.40;3.00;;;;;;;20.70;44.65;101405.41;1719358;83;20494;-82
2022/10/15 10:14:35;;;;;;;4.90;3.20;;;;;;;20.69;44.69;101401.56;1719516;82;21642;-83
2022/10/15 10:17:19;;;;;;;4.87;3.17;;;;;;;20.69;44.69;101396.03;1719405;82;21380;-82
2022/10/15 10:20:05;;;;;;;4.65;3.12;;;;;;;20.68;44.70;101397.97;1719202;83;21065;-82
2022/10/15 10:22:47;;;;;;;4.62;2.95;;;;;;;20.69;44.69;101407.09;1719484;83;21535;-82
2022/10/15 10:25:36;;;;;;;4.40;2.85;;;;;;;20.68;44.68;101403.50;1699512;83;21017;-82
2022/10/15 10:28:13;;;;;;;4.92;3.10;;;;;;;20.68;44.67;101407.65;1713902;83;20965;-83
2022/10/15 10:30:59;;;;;;;4.30;3.20;;;;;;;20.68;44.69;101400.73;1719266;83;21416;-82
2022/10/15 10:33:29;;;;;;;6.25;3.50;;;;;;;20.68;44.66;101401.30;1719413;83;21013;-83
2022/10/15 10:35:55;;;;;;;;;;;;;;;20.68;44.68;101393.83;1721710;83;21068;-83
2022/10/15 10:38:28;;;;;;;4.15;2.90;;;;;;;20.68;44.67;101394.38;1719289;83;20192;-82
2022/10/15 10:40:58;;;;;;;3.55;3.00;;;;;;;20.66;44.70;101389.73;1719508;83;21068;-82
2022/10/15 10:43:28;;;;;;;3.77;3.02;;;;;;;20.67;44.70;101389.97;1719105;83;21201;-83
2022/10/15 10:46:02;;;;;;;4.47;2.92;;;;;;;20.68;44.68;101393.00;1719518;82;21439;-82
2022/10/15 10:48:45;;;;;;;4.30;2.75;;;;;;;20.67;44.68;101383.88;1719174;83;20988;-82
2022/10/15 10:51:25;;;;;;;2.75;2.52;;;;;;;20.67;44.68;101388.03;1715529;81;21259;-83
2022/10/15 10:54:04;;;;;;;3.67;2.83;;;;;;;20.68;44.68;101385.53;1719305;83;21064;-83
2022/10/15 10:56:37;;;;;;;3.55;2.42;;;;;;;20.67;44.68;101383.88;1719275;83;21181;-82
2022/10/15 10:59:18;;;;;;;3.37;2.60;;;;;;;20.67;44.67;101385.27;1719004;83;21000;-82
2022/10/15 11:01:44;;;;;;;3.47;2.83;;;;;;;20.68;44.67;101380.55;1719369;83;21072;-82
2022/10/15 11:04:16;;;;;;;3.12;2.83;;;;;;;20.67;44.64;101380.29;1718990;83;21389;-82
2022/10/15 11:07:00;;;;;;;3.40;2.55;;;;;;;20.68;44.64;101372.27;1719336;81;21002;-82
2022/10/15 11:10:04;;;;;;;4.65;2.70;;;;;;;20.67;44.64;101371.44;1735883;81;21099;-82
2022/10/15 11:12:45;;;;;;;4.40;2.67;;;;;;;20.68;44.64;101371.70;1739926;81;21479;-82
2022/10/15 11:15:41;;;;;;;5.47;3.25;;;;;;;20.67;44.61;101370.05;1739961;82;28726;-82
2022/10/15 11:18:22;;;;;;;5.08;3.10;;;;;;;20.67;44.61;101359.00;1695139;83;20939;-83
2022/10/15 11:21:26;;;;;;;4.08;2.80;;;;;;;20.67;44.62;101363.14;1694722;83;21850;-82
2022/10/15 11:24:29;;;;;;;4.45;2.92;;;;;;;20.67;44.63;101360.38;1694942;83;21573;-82
2022/10/15 11:27:04;;;;;;;3.30;2.60;;;;;;;20.68;44.61;101363.97;1694662;83;21584;-82
2022/10/15 11:29:44;;;;;;;3.65;2.87;;;;;;;20.68;44.63;101358.44;1695034;83;21098;-82
2022/10/15 11:33:11;;;;;;;4.67;2.85;;;;;;;20.65;44.64;101347.44;1732947;81;21641;-83
2022/10/15 11:35:58;;;;;;;3.92;2.87;;;;;;;20.68;44.66;101347.38;1739914;81;21026;-82
2022/10/15 11:38:48;;;;;;;5.33;2.83;;;;;;;20.66;44.62;101356.00;1739747;81;21850;-83
2022/10/15 11:41:26;;;;;;;3.97;3.00;;;;;;;20.67;44.65;101361.77;1749949;82;21091;-82
2022/10/15 11:44:31;;;;;;;3.80;2.80;;;;;;;20.66;44.64;101355.17;1750269;82;20989;-81
2022/10/15 11:47:25;;;;;;;3.75;2.77;;;;;;;20.67;44.61;101356.79;1750558;82;21048;-83
2022/10/15 11:50:15;;;;;;;3.50;3.08;;;;;;;20.66;44.60;101354.61;1745333;81;21083;-82